Time;durP1;ratioP1;P1;durP2;ratioP2;P2;SDS_P1;SDS_P2;PMS_P1;PMS_P2;Temp;Humidity;BMP_temperature;BMP_pressure;BME280_temperature;BME280_humidity;BME280_pressure;Samples;Min_cycle;Max_cycle;Signal;HPM_P1;HPM_P2
2022/05/14 00:01:20;;;;;;;5.50;1.50;;;18.80;61.30;;;;;;5013508;28;20029;-63
2022/05/14 00:03:47;;;;;;;4.85;1.33;;;18.80;61.50;;;;;;5013656;28;20030;-62
2022/05/14 00:06:17;;;;;;;6.82;1.77;;;18.70;61.60;;;;;;5013478;28;20029;-62
2022/05/14 00:08:42;;;;;;;6.65;1.52;;;18.70;61.70;;;;;;5013731;28;20376;-61
2022/05/14 00:13:52;;;;;;;6.05;1.58;;;18.70;61.90;;;;;;5013743;28;20426;-63
2022/05/14 00:16:20;;;;;;;6.60;1.48;;;18.60;62.00;;;;;;5013314;28;20468;-63
2022/05/14 00:18:46;;;;;;;5.07;1.40;;;18.70;62.10;;;;;;5013552;28;20025;-63
2022/05/14 00:21:12;;;;;;;4.55;0.95;;;18.70;62.10;;;;;;5013041;28;20022;-59
2022/05/14 00:23:38;;;;;;;5.50;1.63;;;18.60;62.20;;;;;;5013363;28;20018;-60
2022/05/14 00:26:04;;;;;;;6.32;1.80;;;18.50;62.30;;;;;;5013284;28;20474;-59
2022/05/14 00:28:30;;;;;;;6.25;1.67;;;18.50;62.50;;;;;;5013133;28;20063;-60
2022/05/14 00:30:55;;;;;;;5.85;1.45;;;18.50;62.60;;;;;;5013231;28;20022;-60
2022/05/14 00:33:21;;;;;;;6.07;1.45;;;18.50;62.70;;;;;;5013406;28;20029;-62
2022/05/14 00:35:47;;;;;;;5.45;1.73;;;18.50;62.70;;;;;;5013045;28;20026;-61
2022/05/14 00:38:13;;;;;;;3.80;1.23;;;18.50;63.50;;;;;;5013504;28;20451;-63
2022/05/14 00:40:47;;;;;;;5.60;1.52;;;18.50;62.80;;;;;;5012898;28;20030;-60
2022/05/14 00:43:13;;;;;;;9.98;1.50;;;18.40;62.80;;;;;;5013178;28;20088;-61
2022/05/14 00:45:46;;;;;;;9.93;1.88;;;18.40;63.10;;;;;;5013268;28;20456;-59
2022/05/14 00:48:13;;;;;;;3.67;1.20;;;18.40;63.30;;;;;;5013176;28;20119;-64
2022/05/14 00:50:46;;;;;;;5.68;1.75;;;18.30;63.50;;;;;;5012715;28;20403;-62
2022/05/14 00:53:29;;;;;;;7.28;2.13;;;18.30;63.80;;;;;;5012978;28;20037;-59
2022/05/14 00:55:58;;;;;;;7.28;1.73;;;18.30;63.80;;;;;;5016779;28;20038;-63
2022/05/14 00:58:39;;;;;;;5.93;1.65;;;18.30;64.10;;;;;;5016847;28;20030;-60
2022/05/14 01:01:05;;;;;;;5.97;1.92;;;18.20;64.20;;;;;;5016926;28;20026;-61
2022/05/14 01:03:31;;;;;;;8.75;1.95;;;18.20;64.50;;;;;;5016594;28;20530;-60
2022/05/14 01:05:59;;;;;;;6.07;1.83;;;18.20;64.50;;;;;;5016707;28;20022;-60
2022/05/14 01:08:26;;;;;;;5.80;1.63;;;18.20;64.60;;;;;;5016843;28;20116;-63
2022/05/14 01:10:52;;;;;;;6.13;1.90;;;18.20;64.60;;;;;;5016707;28;20054;-60
2022/05/14 01:13:18;;;;;;;5.57;1.50;;;18.20;64.70;;;;;;5016746;28;20411;-61
2022/05/14 01:15:49;;;;;;;9.52;1.45;;;18.10;64.80;;;;;;5016624;28;20029;-61
2022/05/14 01:18:17;;;;;;;3.92;1.40;;;18.10;64.90;;;;;;5016363;28;20510;-60
2022/05/14 01:20:48;;;;;;;4.72;1.67;;;18.10;65.00;;;;;;5016461;28;20057;-63
2022/05/14 01:23:19;;;;;;;3.85;1.50;;;18.10;65.10;;;;;;5016471;28;20053;-59
2022/05/14 01:28:49;;;;;;;7.35;1.73;;;18.10;65.40;;;;;;5014735;28;20184;-60
2022/05/14 01:31:15;;;;;;;10.55;2.17;;;18.00;65.70;;;;;;5014680;28;20132;-59
2022/05/14 01:33:40;;;;;;;5.57;1.45;;;18.00;65.70;;;;;;5015217;28;20021;-59
2022/05/14 01:36:09;;;;;;;8.40;2.00;;;18.00;65.50;;;;;;5016416;28;20029;-60
2022/05/14 01:38:35;;;;;;;5.60;1.48;;;18.00;65.90;;;;;;5016347;28;20054;-59
2022/05/14 01:41:01;;;;;;;7.22;1.52;;;17.90;66.20;;;;;;5016362;28;20033;-59
2022/05/14 01:43:27;;;;;;;8.32;2.15;;;17.90;66.40;;;;;;5016046;28;20030;-59
2022/05/14 01:45:53;;;;;;;7.10;2.13;;;17.90;66.50;;;;;;5015910;28;20022;-61
2022/05/14 01:48:18;;;;;;;8.50;2.10;;;17.90;66.40;;;;;;5013994;28;20121;-60
2022/05/14 01:50:44;;;;;;;8.52;1.98;;;17.90;66.50;;;;;;5014110;28;20029;-59
2022/05/14 01:53:10;;;;;;;6.57;1.90;;;17.90;66.70;;;;;;5015352;28;20030;-64
2022/05/14 01:55:35;;;;;;;8.15;2.00;;;17.90;66.80;;;;;;5015694;28;20378;-60
2022/05/14 01:58:36;;;;;;;7.13;2.00;;;17.90;66.80;;;;;;5015581;28;20036;-63
2022/05/14 02:00:47;;;;;;;8.95;3.00;;;17.80;67.10;;;;;;5014354;28;20386;-64
2022/05/14 02:03:12;;;;;;;6.55;1.98;;;17.80;67.30;;;;;;5015484;28;20101;-63
2022/05/14 02:05:38;;;;;;;8.48;1.67;;;17.70;67.30;;;;;;5014706;28;20028;-63
2022/05/14 02:08:03;;;;;;;6.22;2.10;;;17.80;67.50;;;;;;5015516;28;20042;-64
2022/05/14 02:10:29;;;;;;;8.40;2.30;;;17.70;67.40;;;;;;5015777;28;20061;-62
2022/05/14 02:12:55;;;;;;;7.60;1.83;;;17.70;67.50;;;;;;5015319;28;20468;-64
2022/05/14 02:15:21;;;;;;;4.68;1.70;;;17.70;67.80;;;;;;5015357;28;20055;-60
2022/05/14 02:17:46;;;;;;;7.30;1.90;;;17.60;68.00;;;;;;5015410;28;20018;-60
2022/05/14 02:20:12;;;;;;;8.68;2.10;;;17.60;68.10;;;;;;5015474;28;20061;-62
2022/05/14 02:22:39;;;;;;;6.25;2.15;;;17.60;68.20;;;;;;5015383;28;20029;-64
2022/05/14 02:25:05;;;;;;;8.75;2.20;;;17.60;68.40;;;;;;5015358;28;20091;-62
2022/05/14 02:27:30;;;;;;;6.78;2.15;;;17.60;68.40;;;;;;5014880;28;20046;-64
2022/05/14 02:29:56;;;;;;;6.03;1.90;;;17.60;68.50;;;;;;5014984;28;20030;-64
2022/05/14 02:32:24;;;;;;;7.95;2.22;;;17.50;68.60;;;;;;5015138;28;20097;-62
2022/05/14 02:34:51;;;;;;;11.32;2.10;;;17.50;69.40;;;;;;5015180;28;20022;-63
2022/05/14 02:37:17;;;;;;;7.55;2.47;;;17.50;68.90;;;;;;5015158;28;20080;-62
2022/05/14 02:39:43;;;;;;;11.40;2.22;;;17.50;68.90;;;;;;5015029;28;20018;-63
2022/05/14 02:42:09;;;;;;;8.73;2.20;;;17.50;69.00;;;;;;5015173;28;20057;-64
2022/05/14 02:44:35;;;;;;;9.63;2.10;;;17.40;69.20;;;;;;5014515;28;20041;-62
2022/05/14 02:47:00;;;;;;;4.78;1.63;;;17.40;69.50;;;;;;5015141;28;20537;-64
2022/05/14 02:49:26;;;;;;;7.57;2.20;;;17.30;69.60;;;;;;5014263;28;20061;-64
2022/05/14 02:51:53;;;;;;;5.28;1.75;;;17.30;69.80;;;;;;5014908;28;20034;-63
2022/05/14 02:54:18;;;;;;;8.02;2.20;;;17.30;69.80;;;;;;5014459;28;20022;-63
2022/05/14 02:56:44;;;;;;;6.25;1.85;;;17.40;69.80;;;;;;5015073;28;20361;-62
2022/05/14 02:59:09;;;;;;;9.13;2.00;;;17.40;69.80;;;;;;5014335;28;20109;-62
2022/05/14 03:01:37;;;;;;;6.65;1.95;;;17.30;69.90;;;;;;5014847;28;20109;-63
2022/05/14 03:04:04;;;;;;;7.30;2.65;;;17.30;70.20;;;;;;5014528;28;20075;-63
2022/05/14 03:06:30;;;;;;;9.00;2.20;;;17.20;70.40;;;;;;5015194;28;20030;-62
2022/05/14 03:08:56;;;;;;;4.63;1.98;;;17.20;70.50;;;;;;5014306;28;20037;-63
2022/05/14 03:11:22;;;;;;;4.93;1.77;;;17.20;70.50;;;;;;5014904;28;20014;-63
2022/05/14 03:13:49;;;;;;;9.70;2.80;;;17.20;70.60;;;;;;5013974;28;20475;-63
2022/05/14 03:16:14;;;;;;;10.77;2.85;;;17.20;70.70;;;;;;5013607;28;20428;-64
2022/05/14 03:18:41;;;;;;;9.38;3.15;;;17.20;70.90;;;;;;5014331;28;20105;-63
2022/05/14 03:21:07;;;;;;;9.82;2.50;;;17.20;71.00;;;;;;5014476;28;20059;-63
2022/05/14 03:23:33;;;;;;;7.95;2.88;;;17.20;71.00;;;;;;5013942;28;20048;-59
2022/05/14 03:25:59;;;;;;;10.05;2.20;;;17.10;71.10;;;;;;4999840;28;20022;-64
2022/05/14 03:28:24;;;;;;;7.10;2.15;;;17.10;71.20;;;;;;4993738;28;20053;-60
2022/05/14 03:30:50;;;;;;;10.05;2.75;;;17.20;71.30;;;;;;4993872;28;20027;-62
2022/05/14 03:33:16;;;;;;;11.32;2.90;;;17.10;71.50;;;;;;4994580;28;20037;-59
2022/05/14 03:35:41;;;;;;;9.07;2.90;;;17.10;71.70;;;;;;4994480;28;20050;-64
2022/05/14 03:38:07;;;;;;;10.75;2.80;;;17.00;71.80;;;;;;4994153;28;20077;-63
2022/05/14 03:40:33;;;;;;;7.60;2.65;;;17.00;71.80;;;;;;4994176;28;20507;-63
2022/05/14 03:42:58;;;;;;;10.75;2.65;;;17.10;71.80;;;;;;4993942;28;20022;-63
2022/05/14 03:45:24;;;;;;;6.95;2.72;;;17.00;71.90;;;;;;4994437;28;20109;-64
2022/05/14 03:47:49;;;;;;;10.40;2.67;;;17.00;71.90;;;;;;4994166;28;20057;-63
2022/05/14 03:50:15;;;;;;;8.57;2.75;;;16.90;72.20;;;;;;4994286;28;20468;-64
2022/05/14 03:52:40;;;;;;;8.60;3.17;;;16.90;72.40;;;;;;4994118;28;20026;-63
2022/05/14 03:55:06;;;;;;;8.35;2.75;;;16.90;72.50;;;;;;4994070;28;20030;-63
2022/05/14 03:57:32;;;;;;;8.07;2.47;;;16.90;72.40;;;;;;4994139;28;20033;-60
2022/05/14 03:59:58;;;;;;;10.43;3.22;;;16.90;72.50;;;;;;4994174;28;20400;-64
2022/05/14 04:02:24;;;;;;;13.57;3.30;;;16.90;72.60;;;;;;4994203;28;20026;-62
2022/05/14 04:04:49;;;;;;;8.52;2.60;;;16.90;72.70;;;;;;4994093;28;20029;-63
2022/05/14 04:07:15;;;;;;;10.32;3.17;;;16.80;72.70;;;;;;4993674;28;20071;-60
2022/05/14 04:09:41;;;;;;;11.70;3.33;;;16.80;72.90;;;;;;4993915;28;20030;-61
2022/05/14 04:12:07;;;;;;;9.90;2.90;;;16.80;72.90;;;;;;4993681;28;20022;-64
2022/05/14 04:14:32;;;;;;;9.52;2.80;;;16.80;72.90;;;;;;4994016;28;20421;-62
2022/05/14 04:16:58;;;;;;;10.38;3.10;;;16.80;73.00;;;;;;4993928;28;20023;-64
2022/05/14 04:19:24;;;;;;;10.10;3.20;;;16.80;73.00;;;;;;4993767;28;20026;-63
2022/05/14 04:21:51;;;;;;;8.05;2.70;;;16.70;73.10;;;;;;4993652;28;20018;-63
2022/05/14 04:24:17;;;;;;;11.00;2.85;;;16.70;73.50;;;;;;4993722;28;20423;-59
2022/05/14 04:26:42;;;;;;;10.50;2.70;;;16.70;73.60;;;;;;4993293;28;20464;-61
2022/05/14 04:29:08;;;;;;;7.70;3.00;;;16.70;73.40;;;;;;4993267;28;20038;-64
2022/05/14 04:31:34;;;;;;;8.43;2.60;;;16.70;73.50;;;;;;4993630;28;20027;-63
2022/05/14 04:34:00;;;;;;;7.93;2.67;;;16.70;73.80;;;;;;4993732;28;20464;-60
2022/05/14 04:36:26;;;;;;;11.27;3.00;;;16.70;73.70;;;;;;4993547;28;20026;-60
2022/05/14 04:38:52;;;;;;;9.32;3.28;;;16.70;73.80;;;;;;4993702;28;20034;-64
2022/05/14 04:41:18;;;;;;;6.32;3.00;;;16.70;73.90;;;;;;4993389;28;20033;-62
2022/05/14 04:43:44;;;;;;;5.28;2.80;;;16.60;74.10;;;;;;4993539;28;20034;-62
2022/05/14 04:46:09;;;;;;;11.55;3.03;;;16.60;74.30;;;;;;4993502;28;20125;-62
2022/05/14 04:48:36;;;;;;;13.63;3.33;;;16.60;74.30;;;;;;4993657;28;20035;-63
2022/05/14 04:51:02;;;;;;;9.55;3.10;;;16.70;74.60;;;;;;4993368;28;20019;-60
2022/05/14 04:53:28;;;;;;;14.60;4.03;;;16.70;74.80;;;;;;4993478;28;20034;-63
2022/05/14 04:55:53;;;;;;;13.02;3.40;;;16.70;75.50;;;;;;4993199;28;20054;-64
2022/05/14 04:58:20;;;;;;;10.25;3.00;;;16.60;75.00;;;;;;4993470;28;20373;-62
2022/05/14 05:00:46;;;;;;;6.80;3.30;;;16.60;75.20;;;;;;4995366;28;20507;-62
2022/05/14 05:03:19;;;;;;;10.90;3.42;;;16.60;75.20;;;;;;5012060;28;20030;-63
2022/05/14 05:05:46;;;;;;;14.52;3.30;;;16.60;75.40;;;;;;5012079;28;20034;-63
2022/05/14 05:08:12;;;;;;;11.30;3.13;;;16.60;75.60;;;;;;5011148;28;20041;-63
2022/05/14 05:10:39;;;;;;;9.27;3.35;;;16.60;75.70;;;;;;5012376;28;20454;-64
2022/05/14 05:13:09;;;;;;;12.63;3.40;;;16.60;75.90;;;;;;5012124;28;20459;-60
2022/05/14 05:15:34;;;;;;;9.18;3.42;;;16.60;76.00;;;;;;5012860;28;20025;-64
2022/05/14 05:18:00;;;;;;;9.45;3.40;;;16.60;76.30;;;;;;5012773;28;20103;-64
2022/05/14 05:20:25;;;;;;;9.85;3.42;;;16.50;77.20;;;;;;5012666;28;20361;-64
2022/05/14 05:22:51;;;;;;;10.50;3.60;;;16.60;76.80;;;;;;5012594;28;20488;-60
2022/05/14 05:25:17;;;;;;;7.82;3.45;;;16.50;77.00;;;;;;5012440;28;20022;-63
2022/05/14 05:27:42;;;;;;;11.45;4.00;;;16.60;77.20;;;;;;5012527;28;20046;-63
2022/05/14 05:30:09;;;;;;;12.50;3.47;;;16.50;77.40;;;;;;5012866;28;20022;-62
2022/05/14 05:32:34;;;;;;;12.10;4.65;;;16.60;77.60;;;;;;5012552;28;20030;-61
2022/05/14 05:35:00;;;;;;;16.02;4.10;;;16.50;77.70;;;;;;5012772;28;20022;-63
2022/05/14 05:37:25;;;;;;;12.02;4.05;;;16.60;77.90;;;;;;5012475;28;20022;-64
2022/05/14 05:39:51;;;;;;;11.02;4.50;;;16.60;78.30;;;;;;5013350;28;20058;-63
2022/05/14 05:42:17;;;;;;;13.65;4.43;;;16.60;78.40;;;;;;5015918;28;20033;-62
2022/05/14 05:44:42;;;;;;;11.50;4.47;;;16.60;78.70;;;;;;5016255;28;20065;-63
2022/05/14 05:47:08;;;;;;;9.57;3.83;;;16.60;79.20;;;;;;5015984;28;20022;-64
2022/05/14 05:49:34;;;;;;;12.35;4.43;;;16.80;80.00;;;;;;5015912;28;20038;-63
2022/05/14 05:52:00;;;;;;;16.27;4.82;;;16.80;80.40;;;;;;5015519;28;20018;-60
2022/05/14 05:57:09;;;;;;;12.77;4.88;;;17.00;80.70;;;;;;5016215;28;20113;-63
2022/05/14 05:59:36;;;;;;;14.95;5.47;;;17.10;80.50;;;;;;5015895;28;20053;-63
2022/05/14 06:02:01;;;;;;;12.98;4.90;;;17.10;80.60;;;;;;5015668;28;20017;-61
2022/05/14 06:04:27;;;;;;;12.40;5.22;;;17.20;80.00;;;;;;5015744;28;20395;-73
2022/05/14 06:06:53;;;;;;;12.85;5.32;;;17.30;79.40;;;;;;5005183;28;20018;-64
2022/05/14 06:09:22;;;;;;;16.45;6.82;;;17.40;79.90;;;;;;5004943;28;20044;-63
2022/05/14 06:11:48;;;;;;;11.48;5.75;;;17.40;79.80;;;;;;5004703;28;20029;-64
2022/05/14 06:14:14;;;;;;;16.02;6.07;;;17.50;79.90;;;;;;5013601;28;20033;-62
2022/05/14 06:16:40;;;;;;;14.73;6.65;;;17.50;79.60;;;;;;5012591;28;20022;-63
2022/05/14 06:19:06;;;;;;;15.63;6.47;;;17.60;79.90;;;;;;5013570;28;20145;-63
2022/05/14 06:21:33;;;;;;;18.00;6.68;;;17.70;79.60;;;;;;5014814;28;20022;-61
2022/05/14 06:23:58;;;;;;;13.98;6.32;;;17.70;79.10;;;;;;5015745;28;20057;-59
2022/05/14 06:26:24;;;;;;;14.85;6.45;;;17.80;78.80;;;;;;4996970;28;20117;-64
2022/05/14 06:28:50;;;;;;;16.67;6.72;;;17.80;78.60;;;;;;4998936;28;20088;-64
2022/05/14 06:31:18;;;;;;;17.42;8.00;;;17.90;78.70;;;;;;5014793;28;20022;-60
2022/05/14 06:33:45;;;;;;;15.50;7.82;;;17.90;78.70;;;;;;5014830;28;20026;-63
2022/05/14 06:36:11;;;;;;;17.88;7.75;;;17.90;78.50;;;;;;5015074;28;20026;-65
2022/05/14 06:38:37;;;;;;;21.90;7.40;;;17.90;78.70;;;;;;5013251;28;20046;-64
2022/05/14 06:41:08;;;;;;;16.75;7.43;;;18.00;79.00;;;;;;5014899;28;20018;-63
2022/05/14 06:43:33;;;;;;;16.02;6.60;;;18.10;79.20;;;;;;5014552;28;20083;-63
2022/05/14 06:45:59;;;;;;;19.08;7.60;;;18.00;79.50;;;;;;5013997;28;20026;-64
2022/05/14 06:48:24;;;;;;;12.32;6.97;;;18.10;79.70;;;;;;5014670;28;20038;-62
2022/05/14 06:50:50;;;;;;;19.05;6.82;;;18.20;79.90;;;;;;5013289;28;20391;-64
2022/05/14 06:53:19;;;;;;;17.42;7.00;;;18.20;79.80;;;;;;5014197;28;20105;-64
2022/05/14 06:55:47;;;;;;;19.23;7.38;;;18.20;80.00;;;;;;5014248;28;20026;-64
2022/05/14 06:58:16;;;;;;;23.77;6.43;;;18.30;80.00;;;;;;5014371;28;20025;-64
2022/05/14 07:00:42;;;;;;;14.23;6.28;;;18.40;79.90;;;;;;5013820;28;20036;-62
2022/05/14 07:08:38;;;;;;;16.45;8.18;;;18.50;80.00;;;;;;5013946;28;20077;-66
2022/05/14 07:11:04;;;;;;;17.73;8.27;;;18.40;79.20;;;;;;5014277;28;20021;-61
2022/05/14 07:13:29;;;;;;;18.42;7.97;;;18.20;80.90;;;;;;5014000;28;20033;-65
2022/05/14 07:15:55;;;;;;;45.97;9.52;;;18.00;82.90;;;;;;5012322;28;20026;-62
2022/05/14 07:18:20;;;;;;;16.23;7.45;;;18.00;82.80;;;;;;5013709;28;20037;-61
2022/05/14 07:20:47;;;;;;;17.80;7.53;;;18.20;83.00;;;;;;5005658;28;20121;-64
2022/05/14 07:23:13;;;;;;;5.63;2.17;;;18.30;82.20;;;;;;4994266;28;20034;-60
2022/05/14 07:25:38;;;;;;;9.02;3.22;;;18.40;77.80;;;;;;5011302;28;20204;-64
2022/05/14 07:28:04;;;;;;;7.25;2.60;;;18.50;77.30;;;;;;5011327;28;20118;-63
2022/05/14 07:30:29;;;;;;;6.30;2.67;;;18.60;77.10;;;;;;5012709;28;20040;-59
2022/05/14 07:32:55;;;;;;;10.20;2.83;;;18.70;77.40;;;;;;5009484;28;20112;-61
2022/05/14 07:35:21;;;;;;;7.85;2.22;;;18.60;76.80;;;;;;5008381;28;20032;-60
2022/05/14 07:37:50;;;;;;;9.15;2.47;;;18.70;76.20;;;;;;5008491;28;20101;-63
2022/05/14 07:40:20;;;;;;;8.30;2.75;;;18.70;76.30;;;;;;5009135;28;20544;-59
2022/05/14 07:42:53;;;;;;;11.25;5.05;;;18.80;76.60;;;;;;5013535;28;20021;-64
2022/05/14 07:45:25;;;;;;;9.77;3.50;;;18.90;78.30;;;;;;5009341;28;20108;-63
2022/05/14 07:47:52;;;;;;;10.80;4.70;;;18.90;76.90;;;;;;5010391;28;20084;-63
2022/05/14 07:50:18;;;;;;;10.38;3.85;;;19.00;77.90;;;;;;5008279;28;20053;-62
2022/05/14 07:52:44;;;;;;;7.97;2.72;;;19.00;77.40;;;;;;5014872;28;20025;-64
2022/05/14 07:55:10;;;;;;;10.70;3.85;;;19.00;76.40;;;;;;5009448;28;20025;-60
2022/05/14 07:57:36;;;;;;;11.18;4.13;;;19.10;77.60;;;;;;5022523;28;20077;-60
2022/05/14 08:00:04;;;;;;;9.55;3.05;;;19.10;77.30;;;;;;5013613;28;20030;-62
2022/05/14 08:02:34;;;;;;;14.75;5.35;;;19.20;76.30;;;;;;5016316;28;20022;-63
2022/05/14 08:05:05;;;;;;;10.77;3.38;;;19.30;77.90;;;;;;5010481;28;20022;-64
2022/05/14 08:07:31;;;;;;;11.07;3.85;;;19.30;77.10;;;;;;5013250;28;20026;-64
2022/05/14 08:10:00;;;;;;;13.60;4.38;;;19.40;76.50;;;;;;5011160;28;20057;-59
2022/05/14 08:12:32;;;;;;;13.15;4.70;;;19.40;76.90;;;;;;5007665;28;20096;-61
2022/05/14 08:14:58;;;;;;;18.13;6.40;;;19.50;76.50;;;;;;5007491;28;20037;-66
2022/05/14 08:17:26;;;;;;;11.07;4.05;;;19.50;77.50;;;;;;5009513;28;20030;-59
2022/05/14 08:19:52;;;;;;;11.77;4.28;;;19.60;76.70;;;;;;5009071;28;20068;-61
2022/05/14 08:25:02;;;;;;;12.50;4.90;;;19.60;76.70;;;;;;5010805;28;20125;-61
2022/05/14 08:27:27;;;;;;;12.70;3.78;;;19.70;76.90;;;;;;5011603;28;20057;-64
2022/05/14 08:29:53;;;;;;;17.73;5.00;;;19.70;76.30;;;;;;5005620;28;20038;-65
2022/05/14 08:32:21;;;;;;;16.52;5.00;;;19.70;76.10;;;;;;5004177;28;20017;-62
2022/05/14 08:34:49;;;;;;;19.35;4.57;;;19.70;75.90;;;;;;5008234;28;20471;-66
2022/05/14 08:37:14;;;;;;;13.45;4.53;;;19.70;75.80;;;;;;5007721;28;20022;-62
2022/05/14 08:39:40;;;;;;;15.82;4.40;;;19.70;76.60;;;;;;5007491;28;20034;-61
2022/05/14 08:42:09;;;;;;;15.50;3.95;;;19.80;75.80;;;;;;5001372;28;20033;-66
2022/05/14 08:44:40;;;;;;;14.52;4.47;;;19.80;75.70;;;;;;5013934;28;20039;-63
2022/05/14 08:47:07;;;;;;;17.58;5.18;;;19.90;75.90;;;;;;5014112;28;20399;-61
2022/05/14 08:49:37;;;;;;;15.95;6.50;;;19.90;76.00;;;;;;5019752;28;20037;-64
2022/05/14 08:52:08;;;;;;;13.95;5.15;;;19.90;76.00;;;;;;5011643;28;20019;-59
2022/05/14 08:54:34;;;;;;;13.43;5.03;;;19.90;75.70;;;;;;5012426;28;20038;-61
2022/05/14 08:57:11;;;;;;;20.73;5.35;;;19.90;75.60;;;;;;5001989;28;20033;-60
2022/05/14 08:59:45;;;;;;;14.07;4.47;;;20.00;75.60;;;;;;5012607;28;20045;-64
2022/05/14 09:02:24;;;;;;;13.88;4.28;;;20.00;75.30;;;;;;5006795;28;20033;-64
2022/05/14 09:04:55;;;;;;;12.65;4.65;;;20.00;75.20;;;;;;5015402;28;20026;-59
2022/05/14 09:07:21;;;;;;;16.42;4.88;;;20.10;75.10;;;;;;5009666;28;20113;-65
2022/05/14 09:09:58;;;;;;;14.98;4.30;;;20.10;74.90;;;;;;5013933;28;20109;-64
2022/05/14 09:12:32;;;;;;;14.85;5.00;;;20.20;74.70;;;;;;5010747;28;21458;-62
2022/05/14 09:15:06;;;;;;;13.52;4.78;;;20.10;75.20;;;;;;5012099;28;20029;-63
2022/05/14 09:17:32;;;;;;;14.95;4.38;;;20.10;74.50;;;;;;5013876;28;20022;-59
2022/05/14 09:19:59;;;;;;;12.23;4.03;;;20.10;75.10;;;;;;5018146;28;20117;-65
2022/05/14 09:22:27;;;;;;;13.65;4.13;;;20.20;74.30;;;;;;5011808;28;20117;-60
2022/05/14 09:24:54;;;;;;;12.60;3.35;;;20.20;74.20;;;;;;5016113;28;20101;-65
2022/05/14 09:27:43;;;;;;;13.27;4.22;;;20.20;74.10;;;;;;5010404;28;20038;-64
2022/05/14 09:30:21;;;;;;;14.43;4.30;;;20.30;73.70;;;;;;5005583;28;20042;-60
2022/05/14 09:32:46;;;;;;;14.10;3.60;;;20.30;73.80;;;;;;5012545;28;20029;-64
2022/05/14 09:35:22;;;;;;;11.95;4.40;;;20.30;73.60;;;;;;5010236;28;20033;-65
2022/05/14 09:37:47;;;;;;;12.55;3.85;;;20.40;73.60;;;;;;5017813;28;20517;-59
2022/05/14 09:40:23;;;;;;;9.77;3.15;;;20.40;73.70;;;;;;5017987;28;20042;-60
2022/05/14 09:43:15;;;;;;;10.82;3.08;;;20.40;73.30;;;;;;5009283;28;20073;-60
2022/05/14 09:45:44;;;;;;;14.30;3.53;;;20.50;73.10;;;;;;5012147;28;20033;-60
2022/05/14 09:48:17;;;;;;;11.00;3.65;;;20.40;73.40;;;;;;5008815;28;20034;-60
2022/05/14 09:50:47;;;;;;;14.65;4.80;;;20.40;73.30;;;;;;5014642;28;20117;-64
2022/05/14 09:53:13;;;;;;;14.20;4.80;;;20.50;73.50;;;;;;5004575;28;20069;-60
2022/05/14 09:55:51;;;;;;;16.25;7.10;;;20.50;73.40;;;;;;5003222;28;20033;-65
2022/05/14 09:58:25;;;;;;;20.30;6.20;;;20.60;73.60;;;;;;5006860;28;20034;-60
2022/05/14 10:00:54;;;;;;;18.15;5.57;;;20.60;73.30;;;;;;5007901;28;20510;-59
2022/05/14 10:03:19;;;;;;;16.00;7.13;;;20.60;73.30;;;;;;5008152;28;20038;-64
2022/05/14 10:05:57;;;;;;;17.70;7.30;;;20.60;74.00;;;;;;5002470;28;20392;-62
2022/05/14 10:08:41;;;;;;;15.15;7.45;;;20.70;74.70;;;;;;5010911;28;20133;-66
2022/05/14 10:11:32;;;;;;;17.60;7.40;;;20.70;75.10;;;;;;5011169;28;20034;-60
2022/05/14 10:14:32;;;;;;;18.42;7.40;;;20.70;75.10;;;;;;5007042;28;20129;-60
2022/05/14 10:17:28;;;;;;;17.35;6.60;;;20.70;74.70;;;;;;5006644;28;20033;-61
2022/05/14 10:20:15;;;;;;;18.77;5.32;;;20.70;74.10;;;;;;5011578;28;20029;-64
2022/05/14 10:29:14;;;;;;;15.25;6.47;;;20.80;75.90;;;;;;5010359;28;20096;-65
2022/05/14 10:32:04;;;;;;;15.10;6.38;;;20.90;76.90;;;;;;5012178;28;20018;-60
2022/05/14 10:34:45;;;;;;;16.45;7.65;;;20.90;76.70;;;;;;5006996;28;20145;-64
2022/05/14 10:37:28;;;;;;;15.98;6.05;;;20.90;78.80;;;;;;5007899;28;20395;-59
2022/05/14 10:40:38;;;;;;;14.38;6.10;;;20.90;76.40;;;;;;5007726;28;20022;-64
2022/05/14 10:43:13;;;;;;;17.08;7.28;;;20.90;76.80;;;;;;5009355;28;20067;-61
2022/05/14 10:45:45;;;;;;;22.30;7.93;;;21.00;80.90;;;;;;5006455;28;20017;-64
2022/05/14 10:48:35;;;;;;;15.55;7.40;;;21.00;83.90;;;;;;5011531;28;20022;-62
2022/05/14 10:51:02;;;;;;;18.48;7.90;;;21.00;80.10;;;;;;5011041;28;20026;-60
2022/05/14 10:53:28;;;;;;;17.88;6.88;;;21.00;86.00;;;;;;5008261;28;20093;-65
2022/05/14 10:56:05;;;;;;;24.45;8.85;;;21.00;85.00;;;;;;5009643;28;20033;-60
2022/05/14 10:58:39;;;;;;;16.38;7.28;;;21.10;84.50;;;;;;5013315;28;20037;-65
2022/05/14 11:01:07;;;;;;;16.42;6.20;;;21.10;82.60;;;;;;5008988;28;20665;-60
2022/05/14 11:03:36;;;;;;;14.73;6.80;;;21.10;81.20;;;;;;5005933;28;20022;-59
2022/05/14 11:06:01;;;;;;;18.55;6.88;;;21.10;81.90;;;;;;5013710;28;20026;-60
2022/05/14 11:08:38;;;;;;;13.90;5.45;;;21.20;81.20;;;;;;5012808;28;20037;-60
2022/05/14 11:11:25;;;;;;;15.52;6.57;;;21.20;77.20;;;;;;5009227;28;20037;-64
2022/05/14 11:14:01;;;;;;;14.38;5.68;;;21.20;79.30;;;;;;5012956;28;20037;-61
2022/05/14 11:16:44;;;;;;;13.98;5.32;;;21.20;79.70;;;;;;5012515;28;20478;-64
2022/05/14 11:19:11;;;;;;;15.52;4.90;;;21.20;77.90;;;;;;5013917;28;20028;-60
2022/05/14 11:21:45;;;;;;;9.00;3.58;;;21.20;75.20;;;;;;5013016;28;20050;-61
2022/05/14 11:24:13;;;;;;;10.70;3.63;;;21.30;73.00;;;;;;5011093;28;20053;-59
2022/05/14 11:26:57;;;;;;;16.50;4.28;;;21.30;71.80;;;;;;5012905;28;20137;-61
2022/05/14 11:29:26;;;;;;;13.68;3.70;;;21.30;72.00;;;;;;5017663;28;20042;-63
2022/05/14 11:32:06;;;;;;;12.57;3.78;;;21.30;71.30;;;;;;5010045;28;20064;-64
2022/05/14 11:34:32;;;;;;;13.43;3.55;;;21.30;70.80;;;;;;5010487;28;20029;-65
2022/05/14 11:37:02;;;;;;;11.38;3.60;;;21.30;70.80;;;;;;5011446;28;20033;-60
2022/05/14 11:39:35;;;;;;;17.27;3.95;;;21.30;70.70;;;;;;5013552;28;20033;-63
2022/05/14 11:42:30;;;;;;;12.95;4.03;;;21.30;70.30;;;;;;5006260;28;20049;-58
2022/05/14 11:45:11;;;;;;;12.48;3.40;;;21.30;70.10;;;;;;5012851;28;20050;-64
2022/05/14 11:47:49;;;;;;;13.50;3.63;;;21.30;69.70;;;;;;5018538;28;20030;-64
2022/05/14 11:50:18;;;;;;;18.40;3.90;;;21.40;70.20;;;;;;5010409;28;20088;-65
2022/05/14 11:52:49;;;;;;;10.98;3.30;;;21.40;70.00;;;;;;5019409;28;20478;-65
2022/05/14 11:55:25;;;;;;;12.07;4.00;;;21.40;69.40;;;;;;5017692;28;20088;-64
2022/05/14 11:57:58;;;;;;;10.90;3.60;;;21.50;69.60;;;;;;5009206;28;20034;-64
2022/05/14 12:00:30;;;;;;;12.10;3.85;;;21.40;68.40;;;;;;5005208;28;20014;-65
2022/05/14 12:03:07;;;;;;;10.60;3.30;;;21.40;68.30;;;;;;5015596;28;20064;-65
2022/05/14 12:05:43;;;;;;;11.07;3.60;;;21.50;68.90;;;;;;5011970;28;20022;-63
2022/05/14 12:09:04;;;;;;;9.70;3.08;;;21.50;69.60;;;;;;5009606;28;20040;-64
2022/05/14 12:11:40;;;;;;;9.40;2.97;;;21.50;69.50;;;;;;5028995;28;20063;-63
2022/05/14 12:14:16;;;;;;;10.45;2.92;;;21.50;69.50;;;;;;5008246;28;20412;-61
2022/05/14 12:16:53;;;;;;;13.52;3.40;;;21.60;69.30;;;;;;5009223;28;20373;-66
2022/05/14 12:19:25;;;;;;;10.95;3.15;;;21.60;69.10;;;;;;5004635;28;20120;-61
2022/05/14 12:21:59;;;;;;;10.02;2.70;;;21.60;68.90;;;;;;5001499;28;20468;-65
2022/05/14 12:24:32;;;;;;;8.95;2.65;;;21.60;68.50;;;;;;5001472;28;20045;-63
2022/05/14 12:26:58;;;;;;;9.50;3.25;;;21.70;67.70;;;;;;5013743;28;20025;-65
2022/05/14 12:29:25;;;;;;;11.20;3.67;;;21.70;66.40;;;;;;5020392;28;20037;-66
2022/05/14 12:34:53;;;;;;;8.25;3.13;;;21.70;65.00;;;;;;5010316;28;20120;-66
2022/05/14 12:37:27;;;;;;;9.10;3.33;;;21.70;65.60;;;;;;5017382;28;20038;-66
2022/05/14 12:39:57;;;;;;;11.95;3.35;;;21.70;64.20;;;;;;4998054;28;20038;-65
2022/05/14 12:42:43;;;;;;;13.80;3.38;;;21.70;65.10;;;;;;5008889;28;20018;-66
2022/05/14 12:45:11;;;;;;;12.30;4.32;;;21.80;65.60;;;;;;5013726;28;20022;-63
2022/05/14 12:47:37;;;;;;;9.57;3.83;;;21.70;63.80;;;;;;5013368;28;20038;-66
2022/05/14 12:50:16;;;;;;;9.25;2.85;;;21.70;64.90;;;;;;5026454;28;20406;-66
2022/05/14 12:52:53;;;;;;;10.48;3.28;;;21.80;65.70;;;;;;5021354;28;20057;-60
2022/05/14 12:55:19;;;;;;;8.52;2.58;;;21.80;65.70;;;;;;5017821;28;20033;-64
2022/05/14 12:57:46;;;;;;;8.75;3.00;;;21.80;65.50;;;;;;5017527;28;20501;-60
2022/05/14 13:00:17;;;;;;;9.68;3.13;;;21.80;65.40;;;;;;5023680;28;20476;-60
2022/05/14 13:02:48;;;;;;;8.25;2.47;;;21.80;64.60;;;;;;5014084;28;20060;-59
2022/05/14 13:05:18;;;;;;;9.38;2.95;;;21.80;65.60;;;;;;5013042;28;20062;-60
2022/05/14 13:07:51;;;;;;;11.82;3.10;;;21.80;65.40;;;;;;5003889;28;20051;-63
2022/05/14 13:10:21;;;;;;;9.63;2.58;;;21.90;65.70;;;;;;5025199;28;20546;-59
2022/05/14 13:12:52;;;;;;;7.57;2.53;;;21.90;65.70;;;;;;5019214;28;20185;-61
2022/05/14 13:15:18;;;;;;;10.18;3.00;;;21.90;65.90;;;;;;5009341;28;20125;-61
2022/05/14 13:17:44;;;;;;;8.95;2.85;;;21.90;66.20;;;;;;5022600;28;20268;-62